sensor_id;sensor_type;location;lat;lon;timestamp;P1;durP1;ratioP1;P2;durP2;ratioP2
3704;SDS011;1868;48.918;9.438;2023-08-20T00:00:44;9.87;;;7.47;;
3704;SDS011;1868;48.918;9.438;2023-08-20T00:03:14;11.80;;;8.03;;
3704;SDS011;1868;48.918;9.438;2023-08-20T00:05:44;8.57;;;7.67;;
3704;SDS011;1868;48.918;9.438;2023-08-20T00:08:15;9.60;;;7.73;;
3704;SDS011;1868;48.918;9.438;2023-08-20T00:10:44;9.67;;;7.63;;
3704;SDS011;1868;48.918;9.438;2023-08-20T00:13:12;8.50;;;7.63;;
3704;SDS011;1868;48.918;9.438;2023-08-20T00:15:42;12.10;;;8.77;;
3704;SDS011;1868;48.918;9.438;2023-08-20T00:18:12;11.30;;;8.00;;
3704;SDS011;1868;48.918;9.438;2023-08-20T00:20:42;10.70;;;9.33;;
3704;SDS011;1868;48.918;9.438;2023-08-20T00:23:12;9.97;;;7.00;;
3704;SDS011;1868;48.918;9.438;2023-08-20T00:25:44;9.30;;;8.40;;
3704;SDS011;1868;48.918;9.438;2023-08-20T00:28:13;9.43;;;7.10;;
3704;SDS011;1868;48.918;9.438;2023-08-20T00:30:43;11.80;;;8.30;;
3704;SDS011;1868;48.918;9.438;2023-08-20T00:33:12;10.63;;;7.77;;
3704;SDS011;1868;48.918;9.438;2023-08-20T00:35:41;7.83;;;6.77;;
3704;SDS011;1868;48.918;9.438;2023-08-20T00:38:09;9.37;;;8.40;;
3704;SDS011;1868;48.918;9.438;2023-08-20T00:40:39;13.30;;;9.53;;
3704;SDS011;1868;48.918;9.438;2023-08-20T00:43:10;17.20;;;11.13;;
3704;SDS011;1868;48.918;9.438;2023-08-20T00:45:39;11.13;;;10.03;;
3704;SDS011;1868;48.918;9.438;2023-08-20T00:48:09;15.00;;;9.50;;
3704;SDS011;1868;48.918;9.438;2023-08-20T00:50:39;17.67;;;10.57;;
3704;SDS011;1868;48.918;9.438;2023-08-20T00:53:09;10.50;;;9.07;;
3704;SDS011;1868;48.918;9.438;2023-08-20T00:55:40;9.93;;;8.37;;
3704;SDS011;1868;48.918;9.438;2023-08-20T00:58:11;10.37;;;8.70;;
3704;SDS011;1868;48.918;9.438;2023-08-20T01:00:41;12.63;;;9.30;;
3704;SDS011;1868;48.918;9.438;2023-08-20T01:03:10;11.20;;;9.77;;
3704;SDS011;1868;48.918;9.438;2023-08-20T01:05:40;12.57;;;10.13;;
3704;SDS011;1868;48.918;9.438;2023-08-20T01:08:23;12.77;;;10.50;;
3704;SDS011;1868;48.918;9.438;2023-08-20T01:11:01;9.43;;;8.03;;
3704;SDS011;1868;48.918;9.438;2023-08-20T01:13:38;11.53;;;7.93;;
3704;SDS011;1868;48.918;9.438;2023-08-20T01:16:06;11.03;;;9.10;;
3704;SDS011;1868;48.918;9.438;2023-08-20T01:18:35;9.83;;;8.83;;
3704;SDS011;1868;48.918;9.438;2023-08-20T01:21:14;15.03;;;13.10;;
3704;SDS011;1868;48.918;9.438;2023-08-20T01:24:01;11.47;;;10.20;;
3704;SDS011;1868;48.918;9.438;2023-08-20T01:26:46;10.23;;;9.13;;
3704;SDS011;1868;48.918;9.438;2023-08-20T01:29:31;10.20;;;9.20;;
3704;SDS011;1868;48.918;9.438;2023-08-20T01:32:02;14.50;;;9.57;;
3704;SDS011;1868;48.918;9.438;2023-08-20T01:34:32;11.40;;;9.60;;
3704;SDS011;1868;48.918;9.438;2023-08-20T01:37:01;9.60;;;8.70;;
3704;SDS011;1868;48.918;9.438;2023-08-20T01:39:30;10.33;;;9.30;;
3704;SDS011;1868;48.918;9.438;2023-08-20T01:41:59;11.40;;;9.03;;
3704;SDS011;1868;48.918;9.438;2023-08-20T01:44:29;8.70;;;7.93;;
3704;SDS011;1868;48.918;9.438;2023-08-20T01:46:58;14.20;;;8.43;;
3704;SDS011;1868;48.918;9.438;2023-08-20T01:49:28;10.03;;;8.97;;
3704;SDS011;1868;48.918;9.438;2023-08-20T01:51:56;10.37;;;9.17;;
3704;SDS011;1868;48.918;9.438;2023-08-20T01:54:25;12.70;;;8.83;;
3704;SDS011;1868;48.918;9.438;2023-08-20T01:56:55;9.73;;;8.73;;
3704;SDS011;1868;48.918;9.438;2023-08-20T01:59:24;9.27;;;8.50;;
3704;SDS011;1868;48.918;9.438;2023-08-20T02:01:56;11.40;;;8.70;;
3704;SDS011;1868;48.918;9.438;2023-08-20T02:04:24;9.30;;;8.43;;
3704;SDS011;1868;48.918;9.438;2023-08-20T02:06:54;10.03;;;9.03;;
3704;SDS011;1868;48.918;9.438;2023-08-20T02:09:22;10.87;;;8.57;;
3704;SDS011;1868;48.918;9.438;2023-08-20T02:11:54;9.60;;;8.03;;
3704;SDS011;1868;48.918;9.438;2023-08-20T02:14:22;10.53;;;7.90;;
3704;SDS011;1868;48.918;9.438;2023-08-20T02:16:55;9.17;;;8.00;;
3704;SDS011;1868;48.918;9.438;2023-08-20T02:19:24;11.20;;;8.30;;
3704;SDS011;1868;48.918;9.438;2023-08-20T02:21:53;9.80;;;8.20;;
3704;SDS011;1868;48.918;9.438;2023-08-20T02:24:22;11.53;;;9.00;;
3704;SDS011;1868;48.918;9.438;2023-08-20T02:26:54;10.07;;;8.50;;
3704;SDS011;1868;48.918;9.438;2023-08-20T02:29:23;9.70;;;7.80;;
3704;SDS011;1868;48.918;9.438;2023-08-20T02:31:53;10.20;;;8.23;;
3704;SDS011;1868;48.918;9.438;2023-08-20T02:37:12;9.57;;;8.73;;
3704;SDS011;1868;48.918;9.438;2023-08-20T02:39:41;9.23;;;8.30;;
3704;SDS011;1868;48.918;9.438;2023-08-20T02:42:12;9.57;;;8.67;;
3704;SDS011;1868;48.918;9.438;2023-08-20T02:44:41;9.07;;;8.03;;
3704;SDS011;1868;48.918;9.438;2023-08-20T02:47:11;9.33;;;7.70;;
3704;SDS011;1868;48.918;9.438;2023-08-20T02:49:39;13.93;;;8.30;;
3704;SDS011;1868;48.918;9.438;2023-08-20T02:52:10;9.60;;;8.60;;
3704;SDS011;1868;48.918;9.438;2023-08-20T02:54:39;10.30;;;9.10;;
3704;SDS011;1868;48.918;9.438;2023-08-20T02:57:08;13.07;;;10.00;;
3704;SDS011;1868;48.918;9.438;2023-08-20T02:59:37;11.30;;;9.17;;
3704;SDS011;1868;48.918;9.438;2023-08-20T03:02:07;10.50;;;9.50;;
3704;SDS011;1868;48.918;9.438;2023-08-20T03:04:37;12.30;;;9.73;;
3704;SDS011;1868;48.918;9.438;2023-08-20T03:07:06;13.27;;;9.93;;
3704;SDS011;1868;48.918;9.438;2023-08-20T03:09:35;10.60;;;9.60;;
3704;SDS011;1868;48.918;9.438;2023-08-20T03:12:04;10.10;;;9.20;;
3704;SDS011;1868;48.918;9.438;2023-08-20T03:14:35;10.63;;;9.53;;
3704;SDS011;1868;48.918;9.438;2023-08-20T03:17:04;11.97;;;10.10;;
3704;SDS011;1868;48.918;9.438;2023-08-20T03:19:33;10.03;;;8.70;;
3704;SDS011;1868;48.918;9.438;2023-08-20T03:22:04;11.50;;;10.30;;
3704;SDS011;1868;48.918;9.438;2023-08-20T03:24:32;12.27;;;9.43;;
3704;SDS011;1868;48.918;9.438;2023-08-20T03:27:01;10.63;;;9.20;;
3704;SDS011;1868;48.918;9.438;2023-08-20T03:29:30;8.40;;;7.60;;
3704;SDS011;1868;48.918;9.438;2023-08-20T03:31:58;10.13;;;8.50;;
3704;SDS011;1868;48.918;9.438;2023-08-20T03:34:29;8.90;;;8.10;;
3704;SDS011;1868;48.918;9.438;2023-08-20T03:36:57;9.40;;;8.40;;
3704;SDS011;1868;48.918;9.438;2023-08-20T03:39:29;8.83;;;7.80;;
3704;SDS011;1868;48.918;9.438;2023-08-20T03:41:59;8.57;;;7.50;;
3704;SDS011;1868;48.918;9.438;2023-08-20T03:44:28;8.80;;;7.90;;
3704;SDS011;1868;48.918;9.438;2023-08-20T03:46:57;15.23;;;8.47;;
3704;SDS011;1868;48.918;9.438;2023-08-20T03:49:26;9.67;;;8.10;;
3704;SDS011;1868;48.918;9.438;2023-08-20T03:51:55;9.10;;;8.27;;
3704;SDS011;1868;48.918;9.438;2023-08-20T03:54:24;11.27;;;10.27;;
3704;SDS011;1868;48.918;9.438;2023-08-20T03:56:54;9.53;;;8.13;;
3704;SDS011;1868;48.918;9.438;2023-08-20T03:59:23;12.33;;;8.70;;
3704;SDS011;1868;48.918;9.438;2023-08-20T04:01:52;10.87;;;8.77;;
3704;SDS011;1868;48.918;9.438;2023-08-20T04:04:21;8.87;;;8.07;;
3704;SDS011;1868;48.918;9.438;2023-08-20T04:06:50;15.03;;;8.13;;
3704;SDS011;1868;48.918;9.438;2023-08-20T04:09:18;9.53;;;8.40;;
3704;SDS011;1868;48.918;9.438;2023-08-20T04:11:47;10.87;;;8.23;;
3704;SDS011;1868;48.918;9.438;2023-08-20T04:14:17;12.00;;;7.77;;
3704;SDS011;1868;48.918;9.438;2023-08-20T04:16:46;10.77;;;7.10;;
3704;SDS011;1868;48.918;9.438;2023-08-20T04:19:15;10.47;;;8.50;;
3704;SDS011;1868;48.918;9.438;2023-08-20T04:21:45;9.60;;;8.63;;
3704;SDS011;1868;48.918;9.438;2023-08-20T04:24:16;10.40;;;9.00;;
3704;SDS011;1868;48.918;9.438;2023-08-20T04:26:45;9.70;;;8.20;;
3704;SDS011;1868;48.918;9.438;2023-08-20T04:29:22;9.70;;;8.90;;
3704;SDS011;1868;48.918;9.438;2023-08-20T04:31:51;8.60;;;7.70;;
3704;SDS011;1868;48.918;9.438;2023-08-20T04:34:20;8.77;;;7.87;;
3704;SDS011;1868;48.918;9.438;2023-08-20T04:36:51;9.37;;;8.47;;
3704;SDS011;1868;48.918;9.438;2023-08-20T04:39:21;9.07;;;8.27;;
3704;SDS011;1868;48.918;9.438;2023-08-20T04:41:53;9.10;;;8.20;;
3704;SDS011;1868;48.918;9.438;2023-08-20T04:44:27;10.67;;;9.57;;
3704;SDS011;1868;48.918;9.438;2023-08-20T04:46:56;9.60;;;8.70;;
3704;SDS011;1868;48.918;9.438;2023-08-20T04:49:29;13.30;;;9.50;;
3704;SDS011;1868;48.918;9.438;2023-08-20T04:52:00;14.03;;;10.13;;
3704;SDS011;1868;48.918;9.438;2023-08-20T04:54:30;10.07;;;9.03;;
3704;SDS011;1868;48.918;9.438;2023-08-20T04:56:58;13.83;;;9.53;;
3704;SDS011;1868;48.918;9.438;2023-08-20T04:59:29;11.03;;;9.13;;
3704;SDS011;1868;48.918;9.438;2023-08-20T05:02:16;13.50;;;9.90;;
3704;SDS011;1868;48.918;9.438;2023-08-20T05:04:52;10.60;;;9.50;;
3704;SDS011;1868;48.918;9.438;2023-08-20T05:07:21;11.10;;;8.30;;
3704;SDS011;1868;48.918;9.438;2023-08-20T05:09:50;10.83;;;9.60;;
3704;SDS011;1868;48.918;9.438;2023-08-20T05:12:19;11.17;;;9.77;;
3704;SDS011;1868;48.918;9.438;2023-08-20T05:14:50;10.93;;;9.80;;
3704;SDS011;1868;48.918;9.438;2023-08-20T05:17:19;11.90;;;9.60;;
3704;SDS011;1868;48.918;9.438;2023-08-20T05:19:49;11.00;;;9.93;;
3704;SDS011;1868;48.918;9.438;2023-08-20T05:22:17;15.57;;;12.40;;
3704;SDS011;1868;48.918;9.438;2023-08-20T05:24:48;17.43;;;15.07;;
3704;SDS011;1868;48.918;9.438;2023-08-20T05:27:17;38.63;;;29.50;;
3704;SDS011;1868;48.918;9.438;2023-08-20T05:29:51;34.50;;;28.60;;
3704;SDS011;1868;48.918;9.438;2023-08-20T05:32:20;19.60;;;17.50;;
3704;SDS011;1868;48.918;9.438;2023-08-20T05:34:48;16.13;;;13.90;;
3704;SDS011;1868;48.918;9.438;2023-08-20T05:37:19;13.67;;;11.70;;
3704;SDS011;1868;48.918;9.438;2023-08-20T05:39:48;15.73;;;9.17;;
3704;SDS011;1868;48.918;9.438;2023-08-20T05:42:18;10.03;;;9.13;;
3704;SDS011;1868;48.918;9.438;2023-08-20T05:44:54;13.70;;;11.37;;
3704;SDS011;1868;48.918;9.438;2023-08-20T05:47:26;10.53;;;9.17;;
3704;SDS011;1868;48.918;9.438;2023-08-20T05:49:55;14.50;;;9.67;;
3704;SDS011;1868;48.918;9.438;2023-08-20T05:52:25;9.77;;;8.77;;
3704;SDS011;1868;48.918;9.438;2023-08-20T05:54:54;9.93;;;8.00;;
3704;SDS011;1868;48.918;9.438;2023-08-20T05:57:23;9.00;;;8.10;;
3704;SDS011;1868;48.918;9.438;2023-08-20T05:59:54;13.00;;;9.33;;
3704;SDS011;1868;48.918;9.438;2023-08-20T06:02:23;11.27;;;9.33;;
3704;SDS011;1868;48.918;9.438;2023-08-20T06:04:52;12.60;;;8.43;;
3704;SDS011;1868;48.918;9.438;2023-08-20T06:07:21;10.53;;;9.43;;
3704;SDS011;1868;48.918;9.438;2023-08-20T06:09:50;12.90;;;10.53;;
3704;SDS011;1868;48.918;9.438;2023-08-20T06:12:19;11.13;;;8.90;;
3704;SDS011;1868;48.918;9.438;2023-08-20T06:14:50;10.37;;;8.30;;
3704;SDS011;1868;48.918;9.438;2023-08-20T06:17:21;9.73;;;8.07;;
3704;SDS011;1868;48.918;9.438;2023-08-20T06:19:50;11.90;;;9.50;;
3704;SDS011;1868;48.918;9.438;2023-08-20T06:22:19;9.70;;;8.30;;
3704;SDS011;1868;48.918;9.438;2023-08-20T06:24:48;9.23;;;8.07;;
3704;SDS011;1868;48.918;9.438;2023-08-20T06:27:18;10.40;;;9.07;;
3704;SDS011;1868;48.918;9.438;2023-08-20T06:29:47;9.70;;;8.73;;
3704;SDS011;1868;48.918;9.438;2023-08-20T06:32:15;9.73;;;8.73;;
3704;SDS011;1868;48.918;9.438;2023-08-20T06:34:46;12.33;;;8.70;;
3704;SDS011;1868;48.918;9.438;2023-08-20T06:37:15;13.70;;;9.60;;
3704;SDS011;1868;48.918;9.438;2023-08-20T06:39:46;11.80;;;8.87;;
3704;SDS011;1868;48.918;9.438;2023-08-20T06:42:15;9.83;;;8.83;;
3704;SDS011;1868;48.918;9.438;2023-08-20T06:44:44;11.47;;;10.30;;
3704;SDS011;1868;48.918;9.438;2023-08-20T06:47:15;10.23;;;9.10;;
3704;SDS011;1868;48.918;9.438;2023-08-20T06:49:46;12.17;;;8.67;;
3704;SDS011;1868;48.918;9.438;2023-08-20T06:52:14;10.10;;;9.00;;
3704;SDS011;1868;48.918;9.438;2023-08-20T06:54:43;9.27;;;8.37;;
3704;SDS011;1868;48.918;9.438;2023-08-20T06:57:14;12.90;;;8.27;;
3704;SDS011;1868;48.918;9.438;2023-08-20T06:59:43;8.80;;;8.10;;
3704;SDS011;1868;48.918;9.438;2023-08-20T07:02:13;9.13;;;8.23;;
3704;SDS011;1868;48.918;9.438;2023-08-20T07:04:41;10.27;;;9.17;;
3704;SDS011;1868;48.918;9.438;2023-08-20T07:07:12;9.17;;;8.27;;
3704;SDS011;1868;48.918;9.438;2023-08-20T07:09:41;10.03;;;7.83;;
3704;SDS011;1868;48.918;9.438;2023-08-20T07:12:10;17.80;;;8.50;;
3704;SDS011;1868;48.918;9.438;2023-08-20T07:14:38;15.77;;;10.13;;
3704;SDS011;1868;48.918;9.438;2023-08-20T07:17:07;10.00;;;8.30;;
3704;SDS011;1868;48.918;9.438;2023-08-20T07:19:36;8.67;;;7.87;;
3704;SDS011;1868;48.918;9.438;2023-08-20T07:22:05;10.80;;;9.37;;
3704;SDS011;1868;48.918;9.438;2023-08-20T07:24:36;12.43;;;8.30;;
3704;SDS011;1868;48.918;9.438;2023-08-20T07:27:05;8.83;;;7.97;;
3704;SDS011;1868;48.918;9.438;2023-08-20T07:29:39;9.83;;;7.30;;
3704;SDS011;1868;48.918;9.438;2023-08-20T07:32:09;12.40;;;8.97;;
3704;SDS011;1868;48.918;9.438;2023-08-20T07:34:38;12.00;;;9.00;;
3704;SDS011;1868;48.918;9.438;2023-08-20T07:37:07;10.50;;;8.27;;
3704;SDS011;1868;48.918;9.438;2023-08-20T07:39:39;8.17;;;7.30;;
3704;SDS011;1868;48.918;9.438;2023-08-20T07:42:08;9.87;;;7.87;;
3704;SDS011;1868;48.918;9.438;2023-08-20T07:44:39;17.03;;;10.20;;
3704;SDS011;1868;48.918;9.438;2023-08-20T07:47:10;13.43;;;10.33;;
3704;SDS011;1868;48.918;9.438;2023-08-20T07:49:39;10.67;;;8.23;;
3704;SDS011;1868;48.918;9.438;2023-08-20T07:52:07;20.17;;;11.87;;
3704;SDS011;1868;48.918;9.438;2023-08-20T07:54:37;15.43;;;10.00;;
3704;SDS011;1868;48.918;9.438;2023-08-20T07:57:07;8.43;;;7.50;;
3704;SDS011;1868;48.918;9.438;2023-08-20T07:59:38;11.20;;;6.60;;
3704;SDS011;1868;48.918;9.438;2023-08-20T08:02:07;8.53;;;7.83;;
3704;SDS011;1868;48.918;9.438;2023-08-20T08:04:37;7.67;;;6.97;;
3704;SDS011;1868;48.918;9.438;2023-08-20T08:07:09;12.67;;;8.47;;
3704;SDS011;1868;48.918;9.438;2023-08-20T08:09:42;7.00;;;6.30;;
3704;SDS011;1868;48.918;9.438;2023-08-20T08:12:14;11.53;;;7.67;;
3704;SDS011;1868;48.918;9.438;2023-08-20T08:14:42;6.80;;;6.10;;
3704;SDS011;1868;48.918;9.438;2023-08-20T08:17:11;8.57;;;6.40;;
3704;SDS011;1868;48.918;9.438;2023-08-20T08:19:40;6.70;;;5.87;;
3704;SDS011;1868;48.918;9.438;2023-08-20T08:22:09;8.10;;;6.53;;
3704;SDS011;1868;48.918;9.438;2023-08-20T08:24:38;7.27;;;6.53;;
3704;SDS011;1868;48.918;9.438;2023-08-20T08:27:10;8.90;;;6.40;;
3704;SDS011;1868;48.918;9.438;2023-08-20T08:29:39;8.10;;;5.70;;
3704;SDS011;1868;48.918;9.438;2023-08-20T08:32:10;7.10;;;6.40;;
3704;SDS011;1868;48.918;9.438;2023-08-20T08:34:39;7.10;;;5.40;;
3704;SDS011;1868;48.918;9.438;2023-08-20T08:37:08;6.93;;;5.93;;
3704;SDS011;1868;48.918;9.438;2023-08-20T08:39:37;5.37;;;4.90;;
3704;SDS011;1868;48.918;9.438;2023-08-20T08:42:07;6.00;;;5.40;;
3704;SDS011;1868;48.918;9.438;2023-08-20T08:44:40;6.43;;;5.80;;
3704;SDS011;1868;48.918;9.438;2023-08-20T08:47:10;6.20;;;5.60;;
3704;SDS011;1868;48.918;9.438;2023-08-20T08:49:41;7.07;;;5.30;;
3704;SDS011;1868;48.918;9.438;2023-08-20T08:52:12;5.50;;;5.00;;
3704;SDS011;1868;48.918;9.438;2023-08-20T08:54:43;4.77;;;4.37;;
3704;SDS011;1868;48.918;9.438;2023-08-20T08:57:16;13.73;;;5.23;;
3704;SDS011;1868;48.918;9.438;2023-08-20T08:59:45;4.70;;;4.40;;
3704;SDS011;1868;48.918;9.438;2023-08-20T09:02:16;5.87;;;4.70;;
3704;SDS011;1868;48.918;9.438;2023-08-20T09:04:46;5.13;;;3.73;;
3704;SDS011;1868;48.918;9.438;2023-08-20T09:07:17;5.43;;;4.87;;
3704;SDS011;1868;48.918;9.438;2023-08-20T09:09:45;5.10;;;4.30;;
3704;SDS011;1868;48.918;9.438;2023-08-20T09:12:18;5.53;;;4.10;;
3704;SDS011;1868;48.918;9.438;2023-08-20T09:14:48;8.10;;;5.10;;
3704;SDS011;1868;48.918;9.438;2023-08-20T09:17:19;7.80;;;3.63;;
3704;SDS011;1868;48.918;9.438;2023-08-20T09:19:48;4.90;;;4.30;;
3704;SDS011;1868;48.918;9.438;2023-08-20T09:22:17;4.83;;;4.10;;
3704;SDS011;1868;48.918;9.438;2023-08-20T09:24:46;3.50;;;3.30;;
3704;SDS011;1868;48.918;9.438;2023-08-20T09:27:22;4.63;;;4.03;;
3704;SDS011;1868;48.918;9.438;2023-08-20T09:29:54;3.90;;;3.50;;
3704;SDS011;1868;48.918;9.438;2023-08-20T09:32:26;3.53;;;3.30;;
3704;SDS011;1868;48.918;9.438;2023-08-20T09:34:56;3.40;;;3.20;;
3704;SDS011;1868;48.918;9.438;2023-08-20T09:37:25;3.67;;;3.38;;
3704;SDS011;1868;48.918;9.438;2023-08-20T09:39:54;4.20;;;3.90;;
3704;SDS011;1868;48.918;9.438;2023-08-20T09:42:25;3.80;;;3.50;;
3704;SDS011;1868;48.918;9.438;2023-08-20T09:44:55;3.42;;;3.22;;
3704;SDS011;1868;48.918;9.438;2023-08-20T09:47:26;3.72;;;3.42;;
3704;SDS011;1868;48.918;9.438;2023-08-20T09:49:56;6.25;;;3.17;;
3704;SDS011;1868;48.918;9.438;2023-08-20T09:52:28;3.70;;;3.40;;
3704;SDS011;1868;48.918;9.438;2023-08-20T09:55:06;3.40;;;3.10;;
3704;SDS011;1868;48.918;9.438;2023-08-20T09:57:39;4.13;;;3.20;;
3704;SDS011;1868;48.918;9.438;2023-08-20T10:00:12;6.05;;;3.53;;
3704;SDS011;1868;48.918;9.438;2023-08-20T10:02:42;2.92;;;2.83;;
3704;SDS011;1868;48.918;9.438;2023-08-20T10:05:12;3.67;;;3.35;;
3704;SDS011;1868;48.918;9.438;2023-08-20T10:07:42;4.57;;;3.33;;
3704;SDS011;1868;48.918;9.438;2023-08-20T10:10:12;2.85;;;2.75;;
3704;SDS011;1868;48.918;9.438;2023-08-20T10:12:42;3.97;;;3.55;;
3704;SDS011;1868;48.918;9.438;2023-08-20T10:15:12;5.05;;;3.40;;
3704;SDS011;1868;48.918;9.438;2023-08-20T10:17:43;3.90;;;3.20;;
3704;SDS011;1868;48.918;9.438;2023-08-20T10:20:14;3.60;;;3.40;;
3704;SDS011;1868;48.918;9.438;2023-08-20T10:22:44;4.28;;;3.97;;
3704;SDS011;1868;48.918;9.438;2023-08-20T10:25:21;3.08;;;2.88;;
3704;SDS011;1868;48.918;9.438;2023-08-20T10:27:52;2.67;;;2.53;;
3704;SDS011;1868;48.918;9.438;2023-08-20T10:30:23;3.38;;;3.17;;
3704;SDS011;1868;48.918;9.438;2023-08-20T10:32:54;5.55;;;3.67;;
3704;SDS011;1868;48.918;9.438;2023-08-20T10:35:27;2.50;;;2.30;;
3704;SDS011;1868;48.918;9.438;2023-08-20T10:38:14;3.72;;;3.42;;
3704;SDS011;1868;48.918;9.438;2023-08-20T10:40:48;8.82;;;3.13;;
3704;SDS011;1868;48.918;9.438;2023-08-20T10:43:30;3.60;;;3.30;;
3704;SDS011;1868;48.918;9.438;2023-08-20T10:46:06;3.40;;;2.95;;
3704;SDS011;1868;48.918;9.438;2023-08-20T10:48:38;3.30;;;3.10;;
3704;SDS011;1868;48.918;9.438;2023-08-20T10:51:09;5.30;;;2.50;;
3704;SDS011;1868;48.918;9.438;2023-08-20T10:53:40;3.00;;;2.80;;
3704;SDS011;1868;48.918;9.438;2023-08-20T10:56:11;2.60;;;2.50;;
3704;SDS011;1868;48.918;9.438;2023-08-20T10:58:44;4.10;;;3.25;;
3704;SDS011;1868;48.918;9.438;2023-08-20T11:01:17;3.60;;;2.90;;
3704;SDS011;1868;48.918;9.438;2023-08-20T11:03:48;2.60;;;2.42;;
3704;SDS011;1868;48.918;9.438;2023-08-20T11:06:18;2.40;;;2.20;;
3704;SDS011;1868;48.918;9.438;2023-08-20T11:08:48;2.63;;;2.30;;
3704;SDS011;1868;48.918;9.438;2023-08-20T11:11:16;2.78;;;2.53;;
3704;SDS011;1868;48.918;9.438;2023-08-20T11:13:49;3.17;;;2.90;;
3704;SDS011;1868;48.918;9.438;2023-08-20T11:16:18;2.65;;;2.40;;
3704;SDS011;1868;48.918;9.438;2023-08-20T11:18:48;2.67;;;2.47;;
3704;SDS011;1868;48.918;9.438;2023-08-20T11:21:19;3.08;;;2.33;;
3704;SDS011;1868;48.918;9.438;2023-08-20T11:23:48;2.28;;;2.08;;
3704;SDS011;1868;48.918;9.438;2023-08-20T11:26:17;4.88;;;2.78;;
3704;SDS011;1868;48.918;9.438;2023-08-20T11:28:46;3.83;;;2.47;;
3704;SDS011;1868;48.918;9.438;2023-08-20T11:31:17;3.40;;;2.38;;
3704;SDS011;1868;48.918;9.438;2023-08-20T11:33:46;2.72;;;2.50;;
3704;SDS011;1868;48.918;9.438;2023-08-20T11:36:15;2.72;;;2.60;;
3704;SDS011;1868;48.918;9.438;2023-08-20T11:38:48;3.80;;;2.75;;
3704;SDS011;1868;48.918;9.438;2023-08-20T11:41:19;2.47;;;2.28;;
3704;SDS011;1868;48.918;9.438;2023-08-20T11:43:49;2.78;;;2.28;;
3704;SDS011;1868;48.918;9.438;2023-08-20T11:46:20;6.18;;;2.90;;
3704;SDS011;1868;48.918;9.438;2023-08-20T11:51:38;2.42;;;2.20;;
3704;SDS011;1868;48.918;9.438;2023-08-20T11:54:09;2.50;;;2.40;;
3704;SDS011;1868;48.918;9.438;2023-08-20T11:56:42;2.67;;;2.30;;
3704;SDS011;1868;48.918;9.438;2023-08-20T11:59:13;2.72;;;2.53;;
3704;SDS011;1868;48.918;9.438;2023-08-20T12:01:54;2.78;;;2.22;;
3704;SDS011;1868;48.918;9.438;2023-08-20T12:04:25;4.32;;;2.33;;
3704;SDS011;1868;48.918;9.438;2023-08-20T12:07:08;3.58;;;2.45;;
3704;SDS011;1868;48.918;9.438;2023-08-20T12:09:38;2.03;;;1.73;;
3704;SDS011;1868;48.918;9.438;2023-08-20T12:12:09;2.10;;;2.00;;
3704;SDS011;1868;48.918;9.438;2023-08-20T12:14:38;2.05;;;1.95;;
3704;SDS011;1868;48.918;9.438;2023-08-20T12:17:10;2.95;;;2.33;;
3704;SDS011;1868;48.918;9.438;2023-08-20T12:19:39;2.28;;;2.17;;
3704;SDS011;1868;48.918;9.438;2023-08-20T12:22:07;3.65;;;1.88;;
3704;SDS011;1868;48.918;9.438;2023-08-20T12:24:37;2.40;;;2.20;;
3704;SDS011;1868;48.918;9.438;2023-08-20T12:27:08;3.67;;;2.13;;
3704;SDS011;1868;48.918;9.438;2023-08-20T12:29:37;4.03;;;2.47;;
3704;SDS011;1868;48.918;9.438;2023-08-20T12:32:07;4.82;;;2.05;;
3704;SDS011;1868;48.918;9.438;2023-08-20T12:34:38;2.00;;;1.90;;
3704;SDS011;1868;48.918;9.438;2023-08-20T12:37:07;1.90;;;1.80;;
3704;SDS011;1868;48.918;9.438;2023-08-20T12:39:37;3.58;;;3.33;;
3704;SDS011;1868;48.918;9.438;2023-08-20T12:42:07;2.35;;;2.15;;
3704;SDS011;1868;48.918;9.438;2023-08-20T12:44:38;2.28;;;2.05;;
3704;SDS011;1868;48.918;9.438;2023-08-20T12:47:07;4.70;;;2.38;;
3704;SDS011;1868;48.918;9.438;2023-08-20T12:49:39;2.30;;;2.20;;
3704;SDS011;1868;48.918;9.438;2023-08-20T12:52:08;4.35;;;2.30;;
3704;SDS011;1868;48.918;9.438;2023-08-20T12:54:37;4.13;;;2.63;;
3704;SDS011;1868;48.918;9.438;2023-08-20T12:57:07;4.43;;;2.05;;
3704;SDS011;1868;48.918;9.438;2023-08-20T12:59:38;2.30;;;1.75;;
3704;SDS011;1868;48.918;9.438;2023-08-20T13:02:07;3.92;;;1.92;;
3704;SDS011;1868;48.918;9.438;2023-08-20T13:04:38;2.10;;;2.00;;
3704;SDS011;1868;48.918;9.438;2023-08-20T13:07:10;4.45;;;1.90;;
3704;SDS011;1868;48.918;9.438;2023-08-20T13:09:40;1.63;;;1.63;;
3704;SDS011;1868;48.918;9.438;2023-08-20T13:12:11;2.55;;;2.03;;
3704;SDS011;1868;48.918;9.438;2023-08-20T13:14:41;1.60;;;1.50;;
3704;SDS011;1868;48.918;9.438;2023-08-20T13:17:10;2.42;;;2.03;;
3704;SDS011;1868;48.918;9.438;2023-08-20T13:19:45;1.83;;;1.50;;
3704;SDS011;1868;48.918;9.438;2023-08-20T13:22:14;2.13;;;2.00;;
3704;SDS011;1868;48.918;9.438;2023-08-20T13:24:44;2.95;;;1.85;;
3704;SDS011;1868;48.918;9.438;2023-08-20T13:27:13;2.45;;;2.17;;
3704;SDS011;1868;48.918;9.438;2023-08-20T13:29:43;2.50;;;2.00;;
3704;SDS011;1868;48.918;9.438;2023-08-20T13:32:11;2.30;;;2.03;;
3704;SDS011;1868;48.918;9.438;2023-08-20T13:34:40;3.65;;;2.67;;
3704;SDS011;1868;48.918;9.438;2023-08-20T13:37:15;2.83;;;2.63;;
3704;SDS011;1868;48.918;9.438;2023-08-20T13:39:46;3.08;;;2.05;;
3704;SDS011;1868;48.918;9.438;2023-08-20T13:42:15;1.85;;;1.75;;
3704;SDS011;1868;48.918;9.438;2023-08-20T13:44:47;2.33;;;1.80;;
3704;SDS011;1868;48.918;9.438;2023-08-20T13:47:18;2.22;;;2.08;;
3704;SDS011;1868;48.918;9.438;2023-08-20T13:49:47;2.83;;;2.72;;
3704;SDS011;1868;48.918;9.438;2023-08-20T13:52:18;2.75;;;2.30;;
3704;SDS011;1868;48.918;9.438;2023-08-20T13:54:46;3.25;;;2.33;;
3704;SDS011;1868;48.918;9.438;2023-08-20T13:57:18;3.30;;;3.00;;
3704;SDS011;1868;48.918;9.438;2023-08-20T13:59:47;2.72;;;2.15;;
3704;SDS011;1868;48.918;9.438;2023-08-20T14:02:20;4.07;;;2.67;;
3704;SDS011;1868;48.918;9.438;2023-08-20T14:04:55;2.55;;;2.40;;
3704;SDS011;1868;48.918;9.438;2023-08-20T14:07:26;2.70;;;2.50;;
3704;SDS011;1868;48.918;9.438;2023-08-20T14:09:55;4.85;;;2.60;;
3704;SDS011;1868;48.918;9.438;2023-08-20T14:12:23;4.43;;;2.35;;
3704;SDS011;1868;48.918;9.438;2023-08-20T14:14:53;3.20;;;2.22;;
3704;SDS011;1868;48.918;9.438;2023-08-20T14:17:21;6.35;;;2.70;;
3704;SDS011;1868;48.918;9.438;2023-08-20T14:19:50;2.05;;;1.95;;
3704;SDS011;1868;48.918;9.438;2023-08-20T14:22:19;4.05;;;2.50;;
3704;SDS011;1868;48.918;9.438;2023-08-20T14:24:49;4.90;;;2.70;;
3704;SDS011;1868;48.918;9.438;2023-08-20T14:27:19;2.35;;;2.15;;
3704;SDS011;1868;48.918;9.438;2023-08-20T14:29:49;3.03;;;2.83;;
3704;SDS011;1868;48.918;9.438;2023-08-20T14:32:19;2.58;;;2.10;;
3704;SDS011;1868;48.918;9.438;2023-08-20T14:34:48;3.15;;;2.70;;
3704;SDS011;1868;48.918;9.438;2023-08-20T14:37:21;3.10;;;2.90;;
3704;SDS011;1868;48.918;9.438;2023-08-20T14:39:51;3.35;;;3.05;;
3704;SDS011;1868;48.918;9.438;2023-08-20T14:42:20;3.47;;;2.75;;
3704;SDS011;1868;48.918;9.438;2023-08-20T14:44:49;3.10;;;2.72;;
3704;SDS011;1868;48.918;9.438;2023-08-20T14:47:20;2.70;;;2.42;;
3704;SDS011;1868;48.918;9.438;2023-08-20T14:49:50;5.05;;;3.65;;
3704;SDS011;1868;48.918;9.438;2023-08-20T14:52:19;3.70;;;2.78;;
3704;SDS011;1868;48.918;9.438;2023-08-20T14:54:49;4.45;;;3.45;;
3704;SDS011;1868;48.918;9.438;2023-08-20T14:57:20;4.60;;;2.90;;
3704;SDS011;1868;48.918;9.438;2023-08-20T14:59:50;3.90;;;3.17;;
3704;SDS011;1868;48.918;9.438;2023-08-20T15:02:19;5.60;;;2.87;;
3704;SDS011;1868;48.918;9.438;2023-08-20T15:04:48;7.13;;;3.60;;
3704;SDS011;1868;48.918;9.438;2023-08-20T15:07:18;5.90;;;3.73;;
3704;SDS011;1868;48.918;9.438;2023-08-20T15:09:47;7.83;;;3.97;;
3704;SDS011;1868;48.918;9.438;2023-08-20T15:12:20;6.00;;;3.57;;
3704;SDS011;1868;48.918;9.438;2023-08-20T15:14:49;4.03;;;3.63;;
3704;SDS011;1868;48.918;9.438;2023-08-20T15:17:18;9.23;;;3.97;;
3704;SDS011;1868;48.918;9.438;2023-08-20T15:19:48;11.00;;;4.47;;
3704;SDS011;1868;48.918;9.438;2023-08-20T15:22:17;4.27;;;3.30;;
3704;SDS011;1868;48.918;9.438;2023-08-20T15:24:48;8.20;;;4.80;;
3704;SDS011;1868;48.918;9.438;2023-08-20T15:27:19;5.53;;;3.53;;
3704;SDS011;1868;48.918;9.438;2023-08-20T15:29:50;4.93;;;3.93;;
3704;SDS011;1868;48.918;9.438;2023-08-20T15:32:19;6.37;;;3.97;;
3704;SDS011;1868;48.918;9.438;2023-08-20T15:34:50;3.97;;;3.70;;